createdAt,value
2023-04-30T00:02:20.734Z,11.20
2023-04-30T00:04:47.790Z,11.20
2023-04-30T00:07:14.763Z,11.10
2023-04-30T00:09:41.790Z,11.10
2023-04-30T00:12:08.769Z,11.10
2023-04-30T00:14:36.458Z,11.10
2023-04-30T00:17:03.509Z,11.10
2023-04-30T00:19:30.538Z,11.10
2023-04-30T00:21:57.528Z,11.10
2023-04-30T00:24:24.571Z,11.00
2023-04-30T00:26:51.678Z,11.00
2023-04-30T00:29:18.671Z,10.90
2023-04-30T00:31:45.893Z,11.00
2023-04-30T00:34:12.914Z,11.00
2023-04-30T00:36:40.555Z,11.00
2023-04-30T00:39:07.653Z,11.00
2023-04-30T00:41:35.235Z,11.00
2023-04-30T00:44:02.708Z,11.00
2023-04-30T00:46:31.253Z,10.90
2023-04-30T00:48:59.979Z,10.80
2023-04-30T00:51:26.959Z,10.80
2023-04-30T00:53:53.944Z,10.80
2023-04-30T00:56:21.202Z,10.80
2023-04-30T00:58:48.243Z,10.80
2023-04-30T01:01:15.570Z,10.80
2023-04-30T01:03:42.892Z,10.80
2023-04-30T01:06:09.988Z,10.80
2023-04-30T01:08:36.984Z,10.80
2023-04-30T01:11:03.933Z,10.80
2023-04-30T01:13:41.149Z,10.80
2023-04-30T01:16:28.498Z,10.80
2023-04-30T01:19:05.533Z,10.80
2023-04-30T01:21:33.577Z,10.80
2023-04-30T01:24:15.962Z,10.70
2023-04-30T01:26:46.477Z,10.70
2023-04-30T01:29:14.658Z,10.70
2023-04-30T01:31:43.681Z,10.70
2023-04-30T01:34:10.859Z,10.70
2023-04-30T01:36:37.831Z,10.70
2023-04-30T01:39:14.929Z,10.70
2023-04-30T01:41:57.253Z,10.70
2023-04-30T01:44:29.543Z,10.70
2023-04-30T01:47:04.629Z,10.70
2023-04-30T01:49:42.711Z,10.70
2023-04-30T01:52:12.104Z,10.70
2023-04-30T01:54:55.867Z,10.70
2023-04-30T01:57:29.825Z,10.70
2023-04-30T01:59:56.905Z,10.70
2023-04-30T02:02:24.080Z,10.70
2023-04-30T02:04:51.638Z,10.60
2023-04-30T02:07:21.087Z,10.60
2023-04-30T02:09:48.247Z,10.60
2023-04-30T02:12:15.881Z,10.60
2023-04-30T02:14:42.856Z,10.60
2023-04-30T02:17:10.078Z,10.60
2023-04-30T02:19:37.033Z,10.60
2023-04-30T02:22:04.068Z,10.60
2023-04-30T02:24:31.022Z,10.60
2023-04-30T02:26:58.966Z,10.60
2023-04-30T02:29:25.936Z,10.60
2023-04-30T02:31:53.000Z,10.60
2023-04-30T02:34:20.060Z,10.60
2023-04-30T02:36:47.065Z,10.60
2023-04-30T02:39:14.107Z,10.50
2023-04-30T02:41:41.081Z,10.50
2023-04-30T02:44:08.046Z,10.50
2023-04-30T02:46:35.111Z,10.40
2023-04-30T02:49:02.160Z,10.40
2023-04-30T02:51:29.376Z,10.40
2023-04-30T02:53:56.340Z,10.40
2023-04-30T02:56:23.319Z,10.30
2023-04-30T02:58:50.372Z,10.40
2023-04-30T03:01:17.394Z,10.40
2023-04-30T03:03:44.508Z,10.30
2023-04-30T03:06:11.547Z,10.30
2023-04-30T03:08:38.544Z,10.30
2023-04-30T03:11:05.684Z,10.20
2023-04-30T03:13:33.124Z,10.20
2023-04-30T03:16:00.613Z,10.20
2023-04-30T03:18:28.409Z,10.20
2023-04-30T03:20:55.539Z,10.10
2023-04-30T03:23:22.569Z,10.10
2023-04-30T03:25:49.534Z,10.20
2023-04-30T03:28:16.545Z,10.10
2023-04-30T03:30:43.514Z,10.10
2023-04-30T03:33:10.665Z,10.00
2023-04-30T03:35:37.725Z,9.90
2023-04-30T03:38:04.714Z,9.90
2023-04-30T03:40:31.686Z,9.90
2023-04-30T03:42:58.701Z,9.90
2023-04-30T03:45:25.742Z,9.90
2023-04-30T03:47:52.778Z,9.90
2023-04-30T03:50:19.821Z,9.90
2023-04-30T03:52:46.812Z,9.90
2023-04-30T03:55:16.222Z,9.90
2023-04-30T03:57:43.356Z,9.90
2023-04-30T04:00:10.642Z,9.80
2023-04-30T04:02:41.802Z,9.80
2023-04-30T04:05:11.028Z,9.80
2023-04-30T04:07:38.496Z,9.80
2023-04-30T04:10:05.849Z,9.80
2023-04-30T04:12:32.939Z,9.80
2023-04-30T04:14:59.918Z,9.70
2023-04-30T04:17:27.182Z,9.70
2023-04-30T04:19:54.461Z,9.80
2023-04-30T04:22:21.738Z,9.80
2023-04-30T04:24:48.904Z,9.80
2023-04-30T04:27:20.361Z,9.70
2023-04-30T04:29:47.931Z,9.80
2023-04-30T04:32:15.063Z,9.80
2023-04-30T04:34:43.615Z,9.80
2023-04-30T04:37:10.628Z,9.80
2023-04-30T04:39:38.378Z,9.80
2023-04-30T04:42:05.429Z,9.80
2023-04-30T04:44:32.829Z,9.80
2023-04-30T04:46:59.896Z,9.80
2023-04-30T04:49:27.157Z,9.80
2023-04-30T04:51:54.195Z,9.80
2023-04-30T04:54:21.230Z,9.80
2023-04-30T04:56:48.709Z,9.70
2023-04-30T04:59:16.931Z,9.70
2023-04-30T05:01:44.234Z,9.70
2023-04-30T05:04:13.655Z,9.70
2023-04-30T05:06:42.479Z,9.80
2023-04-30T05:09:09.831Z,9.70
2023-04-30T05:11:37.379Z,9.70
2023-04-30T05:14:04.361Z,9.70
2023-04-30T05:16:31.399Z,9.70
2023-04-30T05:18:58.383Z,9.70
2023-04-30T05:21:29.158Z,9.70
2023-04-30T05:23:56.236Z,9.70
2023-04-30T05:26:24.379Z,9.70
2023-04-30T05:28:52.284Z,9.70
2023-04-30T05:31:20.971Z,9.70
2023-04-30T05:33:48.210Z,9.70
2023-04-30T05:36:15.309Z,9.70
2023-04-30T05:38:42.497Z,9.80
2023-04-30T05:41:11.242Z,9.70
2023-04-30T05:43:38.230Z,9.80
2023-04-30T05:46:05.334Z,9.80
2023-04-30T05:48:32.574Z,9.80
2023-04-30T05:50:59.523Z,9.80
2023-04-30T05:53:26.543Z,9.80
2023-04-30T05:55:53.537Z,9.80
2023-04-30T05:58:20.610Z,9.80
2023-04-30T06:00:51.901Z,9.80
2023-04-30T06:03:19.340Z,9.80
2023-04-30T06:05:47.116Z,9.80
2023-04-30T06:08:14.262Z,9.80
2023-04-30T06:10:41.635Z,9.90
2023-04-30T06:13:08.634Z,9.90
2023-04-30T06:15:35.967Z,9.90
2023-04-30T06:18:04.394Z,9.90
2023-04-30T06:20:31.403Z,9.90
2023-04-30T06:22:58.488Z,10.00
2023-04-30T06:25:26.313Z,10.00
2023-04-30T06:27:54.068Z,10.10
2023-04-30T06:30:21.151Z,10.20
2023-04-30T06:32:48.395Z,10.30
2023-04-30T06:35:20.910Z,10.30
2023-04-30T06:37:47.989Z,10.40
2023-04-30T06:40:14.978Z,10.40
2023-04-30T06:42:47.638Z,10.60
2023-04-30T06:45:20.331Z,10.70
2023-04-30T06:47:49.784Z,10.70
2023-04-30T06:50:21.322Z,10.70
2023-04-30T06:52:50.784Z,10.70
2023-04-30T06:55:17.821Z,10.80
2023-04-30T06:57:44.815Z,10.80
2023-04-30T07:00:12.455Z,11.00
2023-04-30T07:02:39.727Z,11.40
2023-04-30T07:05:06.916Z,11.70
2023-04-30T07:07:34.733Z,11.90
2023-04-30T07:10:01.713Z,12.00
2023-04-30T07:12:28.678Z,12.20
2023-04-30T07:14:55.704Z,12.30
2023-04-30T07:17:22.864Z,12.40
2023-04-30T07:19:50.165Z,12.50
2023-04-30T07:22:17.123Z,12.50
2023-04-30T07:24:44.089Z,12.60
2023-04-30T07:27:11.258Z,12.70
2023-04-30T07:29:38.304Z,12.70
2023-04-30T07:32:05.457Z,12.80
2023-04-30T07:34:32.417Z,12.80
2023-04-30T07:36:59.405Z,13.00
2023-04-30T07:39:26.425Z,13.10
2023-04-30T07:41:53.407Z,13.30
2023-04-30T07:44:21.643Z,13.30
2023-04-30T07:46:48.722Z,13.30
2023-04-30T07:49:15.752Z,13.30
2023-04-30T07:51:42.969Z,13.30
2023-04-30T07:54:09.971Z,13.10
2023-04-30T07:56:37.011Z,13.00
2023-04-30T07:59:04.071Z,12.90
2023-04-30T08:01:31.293Z,12.90
2023-04-30T08:03:58.431Z,12.80
2023-04-30T08:06:27.363Z,12.70
2023-04-30T08:08:54.435Z,12.60
2023-04-30T08:11:21.497Z,12.60
2023-04-30T08:13:48.504Z,12.50
2023-04-30T08:16:15.896Z,12.60
2023-04-30T08:18:44.827Z,12.80
2023-04-30T08:21:12.512Z,13.00
2023-04-30T08:23:39.530Z,13.00
2023-04-30T08:26:06.832Z,13.10
2023-04-30T08:28:33.910Z,13.10
2023-04-30T08:31:00.925Z,13.30
2023-04-30T08:33:27.934Z,13.30
2023-04-30T08:35:54.895Z,13.30
2023-04-30T08:38:21.893Z,13.40
2023-04-30T08:40:51.612Z,13.30
2023-04-30T08:43:20.115Z,13.20
2023-04-30T08:45:47.250Z,13.00
2023-04-30T08:48:16.697Z,12.90
2023-04-30T08:50:44.031Z,12.80
2023-04-30T08:53:11.209Z,12.90
2023-04-30T08:55:38.825Z,12.90
2023-04-30T08:58:05.794Z,13.00
2023-04-30T09:00:32.813Z,13.00
2023-04-30T09:03:00.930Z,13.00
2023-04-30T09:05:27.978Z,13.00
2023-04-30T09:08:03.110Z,13.30
2023-04-30T09:10:34.614Z,13.40
2023-04-30T09:13:02.538Z,13.70
2023-04-30T09:15:29.800Z,13.60
2023-04-30T09:18:09.925Z,13.50
2023-04-30T09:20:37.062Z,13.50
2023-04-30T09:23:10.540Z,13.40
2023-04-30T09:25:41.683Z,13.30
2023-04-30T09:28:12.392Z,13.20
2023-04-30T09:30:39.773Z,13.20
2023-04-30T09:33:08.673Z,13.20
2023-04-30T09:35:44.494Z,13.30
2023-04-30T09:38:31.883Z,13.30
2023-04-30T09:40:59.881Z,13.30
2023-04-30T09:43:30.704Z,13.40
2023-04-30T09:45:58.073Z,13.40
2023-04-30T09:48:26.471Z,13.40
2023-04-30T09:50:53.562Z,13.40
2023-04-30T09:53:20.615Z,13.50
2023-04-30T09:55:49.479Z,13.40
2023-04-30T09:58:17.257Z,13.40
2023-04-30T10:00:45.026Z,13.30
2023-04-30T10:03:12.827Z,13.20
2023-04-30T10:05:44.229Z,13.20
2023-04-30T10:08:23.448Z,13.10
2023-04-30T10:10:51.967Z,13.10
2023-04-30T10:13:19.887Z,13.10
2023-04-30T10:15:48.840Z,13.10
2023-04-30T10:18:23.413Z,13.10
2023-04-30T10:20:50.721Z,13.10
2023-04-30T10:23:17.682Z,13.20
2023-04-30T10:25:44.678Z,13.30
2023-04-30T10:28:12.470Z,13.30
2023-04-30T10:30:39.635Z,13.40
2023-04-30T10:33:10.633Z,13.50
2023-04-30T10:35:47.464Z,13.50
2023-04-30T10:38:25.041Z,13.60
2023-04-30T10:40:55.988Z,13.70
2023-04-30T10:43:23.885Z,13.80
2023-04-30T10:45:50.951Z,13.90
2023-04-30T10:48:24.657Z,13.80
2023-04-30T10:50:52.230Z,13.80
2023-04-30T10:53:19.716Z,13.90
2023-04-30T10:55:53.637Z,14.00
2023-04-30T10:58:24.421Z,14.00
2023-04-30T11:00:51.826Z,14.20
2023-04-30T11:03:18.792Z,14.30
2023-04-30T11:05:45.758Z,14.50
2023-04-30T11:08:12.795Z,14.50
2023-04-30T11:10:41.533Z,14.50
2023-04-30T11:13:10.467Z,14.60
2023-04-30T11:15:41.547Z,14.70
2023-04-30T11:18:08.757Z,14.80
2023-04-30T11:20:39.594Z,14.90
2023-04-30T11:23:10.501Z,15.10
2023-04-30T11:25:41.190Z,15.20
2023-04-30T11:28:10.417Z,15.20
2023-04-30T11:30:37.370Z,15.20
2023-04-30T11:33:04.416Z,15.20
2023-04-30T11:35:31.410Z,15.10
2023-04-30T11:37:58.511Z,15.10
2023-04-30T11:40:26.766Z,15.30
2023-04-30T11:42:56.603Z,15.40
2023-04-30T11:45:23.752Z,15.40
2023-04-30T11:47:51.696Z,15.30
2023-04-30T11:50:27.463Z,15.10
2023-04-30T11:52:55.151Z,15.00
2023-04-30T11:55:23.152Z,14.90
2023-04-30T11:57:50.670Z,15.00
2023-04-30T12:00:21.382Z,15.00
2023-04-30T12:02:49.127Z,14.90
2023-04-30T12:05:17.025Z,14.80
2023-04-30T12:08:10.704Z,14.80
2023-04-30T12:10:37.707Z,14.80
2023-04-30T12:13:04.680Z,14.70
2023-04-30T12:15:32.943Z,14.70
2023-04-30T12:18:00.127Z,14.70
2023-04-30T12:20:28.415Z,14.70
2023-04-30T12:22:55.753Z,14.60
2023-04-30T12:25:22.812Z,14.70
2023-04-30T12:27:53.081Z,14.70
2023-04-30T12:30:21.233Z,14.70
2023-04-30T12:32:52.134Z,14.70
2023-04-30T12:35:20.809Z,14.60
2023-04-30T12:37:50.279Z,14.60
2023-04-30T12:40:18.067Z,14.60
2023-04-30T12:42:46.810Z,14.50
2023-04-30T12:45:14.073Z,14.60
2023-04-30T12:47:41.311Z,14.60
2023-04-30T12:50:09.321Z,14.70
2023-04-30T12:52:36.325Z,14.70
2023-04-30T12:55:19.419Z,14.80
2023-04-30T12:58:06.192Z,14.80
2023-04-30T13:01:02.935Z,14.90
2023-04-30T13:03:30.057Z,15.00
2023-04-30T13:05:58.514Z,15.20
2023-04-30T13:08:26.144Z,15.30
2023-04-30T13:10:53.117Z,15.40
2023-04-30T13:13:21.135Z,15.50
2023-04-30T13:15:48.355Z,15.50
2023-04-30T13:18:16.371Z,15.60
2023-04-30T13:20:46.562Z,15.60
2023-04-30T13:23:13.568Z,15.50
2023-04-30T13:25:40.744Z,15.50
2023-04-30T13:28:08.056Z,15.50
2023-04-30T13:30:35.730Z,15.50
2023-04-30T13:33:02.854Z,15.50
2023-04-30T13:35:30.024Z,15.50
2023-04-30T13:37:58.811Z,15.50
2023-04-30T13:40:25.844Z,15.50
2023-04-30T13:42:52.837Z,15.60
2023-04-30T13:45:19.898Z,15.60
2023-04-30T13:47:47.171Z,15.70
2023-04-30T13:50:14.160Z,15.70
2023-04-30T13:52:41.198Z,15.80
2023-04-30T13:55:08.460Z,15.80
2023-04-30T13:57:35.423Z,15.80
2023-04-30T14:00:02.731Z,15.80
2023-04-30T14:02:34.920Z,15.80
2023-04-30T14:05:06.302Z,15.90
2023-04-30T14:07:33.993Z,15.90
2023-04-30T14:10:01.007Z,16.10
2023-04-30T14:12:30.441Z,16.20
2023-04-30T14:14:57.775Z,16.30
2023-04-30T14:17:26.722Z,16.20
2023-04-30T14:19:54.101Z,16.10
2023-04-30T14:22:21.951Z,16.10
2023-04-30T14:24:48.953Z,16.10
2023-04-30T14:27:15.984Z,16.10
2023-04-30T14:29:42.964Z,16.10
2023-04-30T14:32:10.233Z,16.00
2023-04-30T14:34:37.588Z,16.10
2023-04-30T14:37:04.925Z,15.90
2023-04-30T14:39:31.954Z,15.90
2023-04-30T14:41:58.979Z,15.70
2023-04-30T14:44:26.461Z,15.70
2023-04-30T14:46:53.487Z,15.60
2023-04-30T14:49:20.514Z,15.60
2023-04-30T14:51:47.550Z,15.60
2023-04-30T14:54:14.619Z,15.60
2023-04-30T14:56:41.667Z,15.50
2023-04-30T14:59:08.711Z,15.50
2023-04-30T15:01:35.892Z,15.40
2023-04-30T15:04:03.481Z,15.30
2023-04-30T15:06:30.919Z,15.30
2023-04-30T15:08:57.991Z,15.40
2023-04-30T15:11:25.104Z,15.50
2023-04-30T15:13:52.990Z,15.40
2023-04-30T15:16:20.027Z,15.40
2023-04-30T15:18:47.086Z,15.40
2023-04-30T15:21:14.130Z,15.40
2023-04-30T15:23:41.240Z,15.40
2023-04-30T15:26:08.216Z,15.50
2023-04-30T15:28:35.818Z,15.60
2023-04-30T15:31:03.017Z,15.60
2023-04-30T15:33:31.160Z,15.70
2023-04-30T15:35:58.480Z,15.70
2023-04-30T15:38:25.569Z,15.60
2023-04-30T15:40:52.560Z,15.50
2023-04-30T15:43:20.054Z,15.40
2023-04-30T15:45:48.244Z,15.30
2023-04-30T15:48:15.747Z,15.30
2023-04-30T15:50:42.850Z,15.20
2023-04-30T15:53:09.837Z,15.20
2023-04-30T15:55:36.978Z,15.30
2023-04-30T15:58:04.368Z,15.30
2023-04-30T16:00:31.491Z,15.30
2023-04-30T16:02:58.491Z,15.20
2023-04-30T16:05:25.769Z,15.20
2023-04-30T16:07:54.276Z,15.10
2023-04-30T16:10:21.531Z,14.90
2023-04-30T16:12:48.627Z,14.90
2023-04-30T16:15:15.807Z,14.90
2023-04-30T16:17:42.937Z,14.80
2023-04-30T16:20:10.684Z,14.90
2023-04-30T16:22:37.734Z,14.90
2023-04-30T16:25:04.872Z,14.90
2023-04-30T16:27:32.244Z,14.90
2023-04-30T16:29:59.249Z,14.90
2023-04-30T16:32:26.661Z,14.80
2023-04-30T16:34:53.643Z,14.90
2023-04-30T16:37:20.776Z,14.80
2023-04-30T16:39:47.730Z,14.80
2023-04-30T16:42:14.704Z,14.80
2023-04-30T16:44:41.670Z,14.80
2023-04-30T16:47:08.974Z,14.80
2023-04-30T16:49:35.988Z,14.80
2023-04-30T16:52:03.384Z,14.80
2023-04-30T16:54:30.389Z,14.70
2023-04-30T16:56:57.369Z,14.70
2023-04-30T16:59:24.625Z,14.70
2023-04-30T17:01:51.698Z,14.70
2023-04-30T17:04:19.176Z,14.70
2023-04-30T17:06:46.382Z,14.60
2023-04-30T17:09:13.532Z,14.60
2023-04-30T17:11:41.374Z,14.60
2023-04-30T17:14:08.552Z,14.50
2023-04-30T17:16:35.638Z,14.50
2023-04-30T17:19:02.701Z,14.50
2023-04-30T17:21:30.044Z,14.40
2023-04-30T17:23:57.065Z,14.40
2023-04-30T17:26:24.847Z,14.30
2023-04-30T17:28:51.834Z,14.30
2023-04-30T17:31:19.154Z,14.30
2023-04-30T17:33:46.346Z,14.20
2023-04-30T17:36:13.618Z,14.20
2023-04-30T17:38:40.663Z,14.20
2023-04-30T17:41:08.235Z,14.10
2023-04-30T17:43:35.193Z,14.10
2023-04-30T17:46:02.259Z,14.10
2023-04-30T17:48:30.969Z,14.00
2023-04-30T17:50:58.036Z,14.00
2023-04-30T17:53:25.009Z,13.90
2023-04-30T17:55:52.324Z,13.90
2023-04-30T17:58:19.295Z,13.90
2023-04-30T18:00:46.398Z,13.80
2023-04-30T18:03:13.563Z,13.80
2023-04-30T18:05:42.192Z,13.80
2023-04-30T18:08:10.123Z,13.70
2023-04-30T18:10:37.145Z,13.70
2023-04-30T18:13:04.375Z,13.60
2023-04-30T18:15:31.712Z,13.60
2023-04-30T18:17:59.395Z,13.50
2023-04-30T18:20:26.600Z,13.50
2023-04-30T18:22:53.568Z,13.40
2023-04-30T18:25:20.593Z,13.40
2023-04-30T18:27:47.604Z,13.40
2023-04-30T18:30:14.996Z,13.30
2023-04-30T18:32:44.109Z,13.30
2023-04-30T18:35:11.222Z,13.30
2023-04-30T18:37:38.257Z,13.20
2023-04-30T18:40:05.518Z,13.20
2023-04-30T18:42:33.242Z,13.10
2023-04-30T18:45:01.004Z,13.10
2023-04-30T18:47:30.787Z,13.10
2023-04-30T18:49:58.087Z,13.00
2023-04-30T18:52:25.217Z,13.00
2023-04-30T18:54:52.292Z,13.00
2023-04-30T18:57:19.359Z,12.90
2023-04-30T18:59:47.719Z,12.90
2023-04-30T19:02:15.518Z,12.90
2023-04-30T19:04:42.516Z,12.90
2023-04-30T19:07:09.620Z,12.80
2023-04-30T19:09:36.908Z,12.80
2023-04-30T19:12:04.006Z,12.70
2023-04-30T19:14:31.041Z,12.70
2023-04-30T19:16:58.226Z,12.70
2023-04-30T19:19:25.331Z,12.70
2023-04-30T19:21:52.799Z,12.60
2023-04-30T19:24:19.782Z,12.60
2023-04-30T19:26:47.139Z,12.50
2023-04-30T19:29:14.151Z,12.50
2023-04-30T19:31:41.352Z,12.50
2023-04-30T19:34:08.391Z,12.40
2023-04-30T19:36:35.495Z,12.40
2023-04-30T19:39:04.219Z,12.40
2023-04-30T19:41:31.197Z,12.30
2023-04-30T19:43:58.160Z,12.30
2023-04-30T19:46:25.528Z,12.30
2023-04-30T19:48:52.672Z,12.20
2023-04-30T19:51:19.716Z,12.20
2023-04-30T19:53:47.149Z,12.20
2023-04-30T19:56:14.102Z,12.10
2023-04-30T19:58:41.090Z,12.10
2023-04-30T20:01:08.157Z,12.00
2023-04-30T20:03:35.707Z,12.00
2023-04-30T20:06:04.518Z,12.00
2023-04-30T20:08:31.581Z,12.00
2023-04-30T20:10:58.982Z,12.00
2023-04-30T20:13:26.982Z,11.90
2023-04-30T20:15:54.036Z,11.90
2023-04-30T20:18:21.121Z,11.90
2023-04-30T20:20:48.608Z,11.80
2023-04-30T20:23:16.084Z,11.80
2023-04-30T20:25:46.053Z,11.80
2023-04-30T20:28:13.633Z,11.70
2023-04-30T20:30:42.681Z,11.70
2023-04-30T20:33:10.080Z,11.60
2023-04-30T20:35:39.660Z,11.60
2023-04-30T20:38:06.887Z,11.60
2023-04-30T20:40:34.132Z,11.50
2023-04-30T20:43:01.093Z,11.50
2023-04-30T20:45:28.218Z,11.50
2023-04-30T20:47:55.606Z,11.50
2023-04-30T20:50:22.667Z,11.50
2023-04-30T20:52:49.673Z,11.40
2023-04-30T20:55:18.861Z,11.40
2023-04-30T20:57:45.862Z,11.40
2023-04-30T21:00:14.060Z,11.40
2023-04-30T21:02:41.180Z,11.30
2023-04-30T21:05:08.463Z,11.30
2023-04-30T21:07:35.504Z,11.30
2023-04-30T21:10:04.898Z,11.30
2023-04-30T21:12:33.081Z,11.20
2023-04-30T21:15:00.652Z,11.20
2023-04-30T21:17:28.131Z,11.20
2023-04-30T21:19:56.551Z,11.20
2023-04-30T21:22:24.450Z,11.10
2023-04-30T21:24:52.542Z,11.10
2023-04-30T21:27:20.011Z,11.10
2023-04-30T21:29:47.704Z,11.00
2023-04-30T21:32:14.746Z,11.00
2023-04-30T21:34:41.788Z,11.00
2023-04-30T21:37:08.842Z,11.00
2023-04-30T21:39:35.934Z,10.90
2023-04-30T21:42:04.373Z,10.90
2023-04-30T21:44:32.608Z,10.90
2023-04-30T21:46:59.887Z,10.90
2023-04-30T21:49:27.484Z,10.80
2023-04-30T21:51:54.495Z,10.80
2023-04-30T21:54:21.511Z,10.80
2023-04-30T21:56:48.470Z,10.80
2023-04-30T21:59:15.423Z,10.80
2023-04-30T22:01:42.507Z,10.80
2023-04-30T22:04:09.567Z,10.70
2023-04-30T22:06:36.628Z,10.70
2023-04-30T22:09:04.456Z,10.70
2023-04-30T22:11:31.641Z,10.70
2023-04-30T22:13:58.910Z,10.70
2023-04-30T22:16:26.038Z,10.60
2023-04-30T22:18:53.035Z,10.60
2023-04-30T22:21:20.053Z,10.60
2023-04-30T22:23:47.507Z,10.60
2023-04-30T22:26:15.394Z,10.60
2023-04-30T22:28:42.542Z,10.60
2023-04-30T22:31:09.571Z,10.60
2023-04-30T22:33:37.559Z,10.50
2023-04-30T22:36:05.630Z,10.50
2023-04-30T22:38:32.673Z,10.50
2023-04-30T22:41:00.215Z,10.50
2023-04-30T22:43:29.096Z,10.50
2023-04-30T22:45:59.168Z,10.50
2023-04-30T22:48:27.544Z,10.50
2023-04-30T22:50:55.349Z,10.50
2023-04-30T22:53:22.367Z,10.50
2023-04-30T22:55:49.622Z,10.50
2023-04-30T22:58:16.999Z,10.40
2023-04-30T23:00:44.269Z,10.40
2023-04-30T23:03:11.435Z,10.40
2023-04-30T23:05:38.472Z,10.40
2023-04-30T23:08:05.444Z,10.40
2023-04-30T23:10:32.412Z,10.40
2023-04-30T23:12:59.475Z,10.40
2023-04-30T23:15:26.711Z,10.40
2023-04-30T23:17:54.501Z,10.40
2023-04-30T23:20:22.494Z,10.30
2023-04-30T23:22:50.030Z,10.30
2023-04-30T23:25:17.012Z,10.30
2023-04-30T23:27:44.848Z,10.30
2023-04-30T23:30:11.917Z,10.30
2023-04-30T23:32:39.004Z,10.20
2023-04-30T23:35:07.590Z,10.30
2023-04-30T23:37:34.905Z,10.20
2023-04-30T23:40:02.066Z,10.20
2023-04-30T23:42:29.027Z,10.20
2023-04-30T23:44:56.041Z,10.20
2023-04-30T23:47:23.076Z,10.20
2023-04-30T23:49:50.224Z,10.10
2023-04-30T23:52:17.187Z,10.20
2023-04-30T23:54:44.341Z,10.10
2023-04-30T23:57:11.333Z,10.10
2023-04-30T23:59:38.558Z,10.10
